createdAt,value
2017-09-01T00:00:46.540Z,0
2017-09-01T00:01:55.375Z,0
2017-09-01T00:03:04.200Z,0
2017-09-01T00:04:13.034Z,0
2017-09-01T00:05:21.873Z,0
2017-09-01T00:06:30.704Z,0
2017-09-01T00:07:39.530Z,0
2017-09-01T00:08:48.362Z,0
2017-09-01T00:09:57.195Z,0
2017-09-01T00:11:06.027Z,0
2017-09-01T00:12:14.858Z,0
2017-09-01T00:13:23.689Z,0
2017-09-01T00:14:32.524Z,0
2017-09-01T00:15:41.355Z,0
2017-09-01T00:16:50.200Z,0
2017-09-01T00:17:59.018Z,0
2017-09-01T00:19:07.844Z,0
2017-09-01T00:20:16.677Z,0
2017-09-01T00:21:25.508Z,0
2017-09-01T00:22:34.342Z,0
2017-09-01T00:23:43.176Z,0
2017-09-01T00:24:52.002Z,0
2017-09-01T00:26:00.835Z,0
2017-09-01T00:27:09.668Z,0
2017-09-01T00:28:18.493Z,0
2017-09-01T00:29:27.323Z,0
2017-09-01T00:30:36.153Z,0
2017-09-01T00:31:44.980Z,0
2017-09-01T00:32:53.814Z,0
2017-09-01T00:34:02.640Z,0
2017-09-01T00:35:11.469Z,0
2017-09-01T00:36:20.299Z,0
2017-09-01T00:37:29.132Z,0
2017-09-01T00:38:38.287Z,0
2017-09-01T00:39:47.131Z,0
2017-09-01T00:40:55.944Z,0
2017-09-01T00:42:04.770Z,0
2017-09-01T00:43:13.605Z,0
2017-09-01T00:44:22.433Z,0
2017-09-01T00:45:31.261Z,0
2017-09-01T00:46:40.099Z,0
2017-09-01T00:47:48.924Z,0
2017-09-01T00:48:57.755Z,0
2017-09-01T00:50:06.585Z,0
2017-09-01T00:51:15.744Z,0
2017-09-01T00:52:24.570Z,0
2017-09-01T00:53:33.402Z,0
2017-09-01T00:54:42.238Z,0
2017-09-01T00:55:51.069Z,0
2017-09-01T00:56:59.901Z,0
2017-09-01T00:58:08.730Z,0
2017-09-01T00:59:17.560Z,0
2017-09-01T01:00:26.390Z,0
2017-09-01T01:01:35.227Z,0
2017-09-01T01:02:44.055Z,0
2017-09-01T01:03:52.881Z,0
2017-09-01T01:05:01.729Z,0
2017-09-01T01:06:10.541Z,0
2017-09-01T01:07:19.378Z,0
2017-09-01T01:08:28.204Z,0
2017-09-01T01:09:37.030Z,0
2017-09-01T01:10:45.854Z,0
2017-09-01T01:11:54.694Z,0
2017-09-01T01:13:03.523Z,0
2017-09-01T01:14:12.356Z,0
2017-09-01T01:15:21.187Z,0
2017-09-01T01:16:30.015Z,0
2017-09-01T01:17:38.852Z,0
2017-09-01T01:18:47.678Z,0
2017-09-01T01:19:56.509Z,0
2017-09-01T01:21:05.340Z,0
2017-09-01T01:22:14.170Z,0
2017-09-01T01:23:23.000Z,0
2017-09-01T01:24:31.831Z,0
2017-09-01T01:25:40.664Z,0
2017-09-01T01:26:49.489Z,0
2017-09-01T01:27:58.326Z,0
2017-09-01T01:29:07.153Z,0
2017-09-01T01:30:15.980Z,0
2017-09-01T01:31:24.814Z,0
2017-09-01T01:32:33.642Z,0
2017-09-01T01:33:42.472Z,0
2017-09-01T01:34:51.305Z,0
2017-09-01T01:36:00.130Z,0
2017-09-01T01:37:08.961Z,0
2017-09-01T01:38:17.793Z,0
2017-09-01T01:39:26.620Z,0
2017-09-01T01:40:35.450Z,0
2017-09-01T01:41:44.280Z,0
2017-09-01T01:42:53.111Z,0
2017-09-01T01:44:01.938Z,0
2017-09-01T01:45:11.099Z,0
2017-09-01T01:46:19.929Z,0
2017-09-01T01:47:29.080Z,0
2017-09-01T01:48:37.916Z,0
2017-09-01T01:49:46.744Z,0
2017-09-01T01:50:55.579Z,0
2017-09-01T01:52:04.413Z,0
2017-09-01T01:53:13.242Z,0
2017-09-01T01:54:22.067Z,0
2017-09-01T01:55:30.895Z,0
2017-09-01T01:56:39.725Z,0
2017-09-01T01:57:48.555Z,0
2017-09-01T01:58:57.389Z,0
2017-09-01T02:00:06.214Z,0
2017-09-01T02:01:15.047Z,0
2017-09-01T02:02:23.873Z,0
2017-09-01T02:03:32.725Z,0
2017-09-01T02:04:41.532Z,0
2017-09-01T02:05:50.362Z,0
2017-09-01T02:06:59.195Z,0
2017-09-01T02:08:08.020Z,0
2017-09-01T02:09:16.857Z,0
2017-09-01T02:10:25.687Z,0
2017-09-01T02:11:34.520Z,0
2017-09-01T02:12:43.348Z,0
2017-09-01T02:13:52.176Z,0
2017-09-01T02:15:01.004Z,0
2017-09-01T02:16:09.837Z,0
2017-09-01T02:17:18.668Z,0
2017-09-01T02:18:27.496Z,0
2017-09-01T02:19:36.332Z,0
2017-09-01T02:20:45.162Z,0
2017-09-01T02:21:53.989Z,0
2017-09-01T02:23:02.822Z,0
2017-09-01T02:24:11.650Z,0
2017-09-01T02:25:20.480Z,0
2017-09-01T02:26:29.312Z,0
2017-09-01T02:27:38.145Z,0
2017-09-01T02:28:46.974Z,0
2017-09-01T02:29:55.808Z,0
2017-09-01T02:31:04.636Z,0
2017-09-01T02:32:13.465Z,0
2017-09-01T02:33:22.293Z,0
2017-09-01T02:34:31.121Z,0
2017-09-01T02:35:39.947Z,0
2017-09-01T02:36:48.777Z,0
2017-09-01T02:37:57.613Z,0
2017-09-01T02:39:06.436Z,0
2017-09-01T02:40:15.598Z,0
2017-09-01T02:41:24.423Z,0
2017-09-01T02:42:33.257Z,0
2017-09-01T02:43:42.092Z,0
2017-09-01T02:44:50.919Z,0
2017-09-01T02:46:00.077Z,0
2017-09-01T02:47:09.242Z,0
2017-09-01T02:48:18.076Z,0
2017-09-01T02:49:26.902Z,0
2017-09-01T02:50:35.733Z,0
2017-09-01T02:51:44.565Z,0
2017-09-01T02:52:53.392Z,0
2017-09-01T02:54:02.225Z,0
2017-09-01T02:55:11.051Z,0
2017-09-01T02:56:19.886Z,0
2017-09-01T02:57:28.711Z,0
2017-09-01T02:58:37.544Z,0
2017-09-01T02:59:46.370Z,0
2017-09-01T03:00:55.193Z,0
2017-09-01T03:02:04.027Z,0
2017-09-01T03:03:12.852Z,0
2017-09-01T03:04:21.683Z,0
2017-09-01T03:05:30.514Z,0
2017-09-01T03:06:39.345Z,0
2017-09-01T03:07:48.170Z,0
2017-09-01T03:08:57.003Z,0
2017-09-01T03:10:05.828Z,0
2017-09-01T03:11:14.667Z,0
2017-09-01T03:12:23.500Z,0
2017-09-01T03:13:32.326Z,0
2017-09-01T03:14:41.152Z,0
2017-09-01T03:15:50.313Z,0
2017-09-01T03:16:59.139Z,0
2017-09-01T03:18:07.969Z,0
2017-09-01T03:19:16.800Z,0
2017-09-01T03:20:25.629Z,0
2017-09-01T03:21:34.457Z,0
2017-09-01T03:22:43.290Z,0
2017-09-01T03:23:52.120Z,0
2017-09-01T03:25:00.950Z,0
2017-09-01T03:26:09.777Z,0
2017-09-01T03:27:18.604Z,0
2017-09-01T03:28:27.440Z,0
2017-09-01T03:29:36.265Z,0
2017-09-01T03:30:45.423Z,0
2017-09-01T03:31:54.260Z,0
2017-09-01T03:33:03.089Z,0
2017-09-01T03:34:11.917Z,0
2017-09-01T03:35:20.747Z,0
2017-09-01T03:36:29.575Z,0
2017-09-01T03:37:38.400Z,0
2017-09-01T03:38:47.232Z,0
2017-09-01T03:39:56.056Z,0
2017-09-01T03:41:04.891Z,0
2017-09-01T03:42:14.045Z,0
2017-09-01T03:43:22.870Z,0
2017-09-01T03:44:31.701Z,0
2017-09-01T03:45:40.529Z,0
2017-09-01T03:46:49.355Z,0
2017-09-01T03:47:58.189Z,0
2017-09-01T03:49:07.020Z,0
2017-09-01T03:50:15.841Z,0
2017-09-01T03:51:24.670Z,0
2017-09-01T03:52:33.506Z,0
2017-09-01T03:53:42.335Z,0
2017-09-01T03:54:51.163Z,0
2017-09-01T03:55:59.993Z,0
2017-09-01T03:57:08.824Z,0
2017-09-01T03:58:17.653Z,0
2017-09-01T03:59:26.485Z,0
2017-09-01T04:00:35.314Z,0
2017-09-01T04:01:44.145Z,0
2017-09-01T04:02:53.300Z,0
2017-09-01T04:04:02.125Z,0
2017-09-01T04:05:10.955Z,0
2017-09-01T04:06:19.785Z,0
2017-09-01T04:07:28.611Z,0
2017-09-01T04:08:37.441Z,0
2017-09-01T04:09:46.271Z,0
2017-09-01T04:10:55.103Z,0
2017-09-01T04:12:03.926Z,0
2017-09-01T04:13:12.759Z,0
2017-09-01T04:14:21.588Z,0
2017-09-01T04:15:30.415Z,0
2017-09-01T04:16:39.571Z,0
2017-09-01T04:17:48.398Z,0
2017-09-01T04:18:57.225Z,0
2017-09-01T04:20:06.051Z,0
2017-09-01T04:21:14.885Z,0
2017-09-01T04:22:23.719Z,0
2017-09-01T04:23:32.546Z,0
2017-09-01T04:24:41.374Z,0
2017-09-01T04:25:50.199Z,0
2017-09-01T04:26:59.036Z,0
2017-09-01T04:28:07.866Z,0
2017-09-01T04:29:16.694Z,0
2017-09-01T04:30:25.523Z,0
2017-09-01T04:31:34.353Z,0
2017-09-01T04:32:43.494Z,0
2017-09-01T04:33:52.328Z,0
2017-09-01T04:35:01.159Z,0
2017-09-01T04:36:09.988Z,0
2017-09-01T04:37:18.814Z,0
2017-09-01T04:38:27.647Z,0
2017-09-01T04:39:36.470Z,0
2017-09-01T04:40:45.299Z,0
2017-09-01T04:41:54.127Z,0
2017-09-01T04:43:02.955Z,0
2017-09-01T04:44:11.784Z,0
2017-09-01T04:45:20.613Z,0
2017-09-01T04:46:29.445Z,5
2017-09-01T04:47:38.275Z,5
2017-09-01T04:48:47.104Z,5
2017-09-01T04:49:55.932Z,5
2017-09-01T04:51:04.759Z,5
2017-09-01T04:52:13.592Z,5
2017-09-01T04:53:22.419Z,5
2017-09-01T04:54:31.252Z,5
2017-09-01T04:55:40.082Z,5
2017-09-01T04:56:48.909Z,5
2017-09-01T04:57:57.737Z,5
2017-09-01T04:59:06.567Z,5
2017-09-01T05:00:15.396Z,5
2017-09-01T05:01:24.228Z,5
2017-09-01T05:02:33.053Z,5
2017-09-01T05:03:41.881Z,5
2017-09-01T05:04:50.710Z,5
2017-09-01T05:05:59.544Z,10
2017-09-01T05:07:08.373Z,10
2017-09-01T05:08:17.210Z,10
2017-09-01T05:09:26.031Z,10
2017-09-01T05:10:34.865Z,10
2017-09-01T05:11:44.014Z,10
2017-09-01T05:12:52.847Z,10
2017-09-01T05:14:01.678Z,10
2017-09-01T05:15:10.506Z,10
2017-09-01T05:16:19.339Z,10
2017-09-01T05:17:28.171Z,10
2017-09-01T05:18:36.997Z,10
2017-09-01T05:19:45.829Z,10
2017-09-01T05:20:54.658Z,10
2017-09-01T05:22:03.488Z,10
2017-09-01T05:23:12.315Z,10
2017-09-01T05:24:21.149Z,15
2017-09-01T05:25:29.975Z,15
2017-09-01T05:26:38.804Z,10
2017-09-01T05:27:47.628Z,10
2017-09-01T05:28:56.462Z,10
2017-09-01T05:30:05.287Z,10
2017-09-01T05:31:14.120Z,10
2017-09-01T05:32:22.948Z,10
2017-09-01T05:33:31.778Z,10
2017-09-01T05:34:40.923Z,10
2017-09-01T05:35:49.756Z,10
2017-09-01T05:36:58.584Z,15
2017-09-01T05:38:07.416Z,15
2017-09-01T05:39:16.251Z,15
2017-09-01T05:40:25.075Z,15
2017-09-01T05:41:33.905Z,15
2017-09-01T05:42:42.742Z,15
2017-09-01T05:43:51.566Z,15
2017-09-01T05:45:00.396Z,15
2017-09-01T05:46:09.223Z,15
2017-09-01T05:47:18.054Z,15
2017-09-01T05:48:26.879Z,15
2017-09-01T05:49:36.042Z,15
2017-09-01T05:50:44.870Z,20
2017-09-01T05:51:53.694Z,20
2017-09-01T05:53:02.529Z,20
2017-09-01T05:54:11.359Z,20
2017-09-01T05:55:20.190Z,20
2017-09-01T05:56:29.020Z,20
2017-09-01T05:57:38.528Z,20
2017-09-01T05:58:47.357Z,20
2017-09-01T05:59:56.189Z,20
2017-09-01T06:01:05.021Z,20
2017-09-01T06:02:14.178Z,20
2017-09-01T06:03:23.333Z,15
2017-09-01T06:04:32.163Z,20
2017-09-01T06:05:40.991Z,20
2017-09-01T06:06:49.822Z,20
2017-09-01T06:07:58.650Z,25
2017-09-01T06:09:07.480Z,25
2017-09-01T06:10:16.308Z,25
2017-09-01T06:11:25.141Z,25
2017-09-01T06:12:33.973Z,30
2017-09-01T06:13:42.800Z,30
2017-09-01T06:14:51.628Z,35
2017-09-01T06:16:00.451Z,35
2017-09-01T06:17:09.286Z,35
2017-09-01T06:18:18.438Z,30
2017-09-01T06:19:27.270Z,30
2017-09-01T06:20:36.096Z,30
2017-09-01T06:21:44.925Z,30
2017-09-01T06:22:53.752Z,30
2017-09-01T06:24:02.584Z,35
2017-09-01T06:25:11.414Z,35
2017-09-01T06:26:20.244Z,30
2017-09-01T06:27:29.069Z,30
2017-09-01T06:28:37.904Z,30
2017-09-01T06:29:46.729Z,35
2017-09-01T06:30:55.890Z,35
2017-09-01T06:32:04.719Z,35
2017-09-01T06:33:13.549Z,35
2017-09-01T06:34:22.702Z,40
2017-09-01T06:35:31.535Z,40
2017-09-01T06:36:40.361Z,40
2017-09-01T06:37:49.192Z,40
2017-09-01T06:38:58.026Z,40
2017-09-01T06:40:06.855Z,45
2017-09-01T06:41:15.678Z,50
2017-09-01T06:42:24.511Z,50
2017-09-01T06:43:33.337Z,45
2017-09-01T06:44:42.173Z,45
2017-09-01T06:45:51.005Z,50
2017-09-01T06:46:59.833Z,50
2017-09-01T06:48:08.663Z,50
2017-09-01T06:49:17.491Z,50
2017-09-01T06:50:26.642Z,45
2017-09-01T06:51:35.476Z,40
2017-09-01T06:52:44.312Z,40
2017-09-01T06:53:53.139Z,40
2017-09-01T06:55:01.966Z,40
2017-09-01T06:56:10.801Z,45
2017-09-01T06:57:19.628Z,45
2017-09-01T06:58:28.461Z,40
2017-09-01T06:59:37.290Z,35
2017-09-01T07:00:46.116Z,35
2017-09-01T07:01:54.947Z,40
2017-09-01T07:03:03.778Z,40
2017-09-01T07:04:12.610Z,40
2017-09-01T07:05:21.437Z,45
2017-09-01T07:06:30.265Z,45
2017-09-01T07:07:39.418Z,40
2017-09-01T07:08:48.249Z,35
2017-09-01T07:09:57.082Z,35
2017-09-01T07:11:05.909Z,30
2017-09-01T07:12:14.740Z,25
2017-09-01T07:13:23.569Z,25
2017-09-01T07:14:32.403Z,25
2017-09-01T07:15:41.229Z,30
2017-09-01T07:16:50.064Z,30
2017-09-01T07:17:58.895Z,35
2017-09-01T07:19:07.723Z,35
2017-09-01T07:20:16.550Z,35
2017-09-01T07:21:25.381Z,40
2017-09-01T07:22:34.213Z,45
2017-09-01T07:23:43.043Z,45
2017-09-01T07:24:51.872Z,45
2017-09-01T07:26:00.701Z,50
2017-09-01T07:27:09.533Z,50
2017-09-01T07:28:18.362Z,45
2017-09-01T07:29:27.192Z,50
2017-09-01T07:30:36.019Z,55
2017-09-01T07:31:44.850Z,60
2017-09-01T07:32:53.684Z,60
2017-09-01T07:34:02.837Z,60
2017-09-01T07:35:11.668Z,65
2017-09-01T07:36:20.497Z,60
2017-09-01T07:37:29.326Z,60
2017-09-01T07:38:38.160Z,55
2017-09-01T07:39:46.990Z,55
2017-09-01T07:40:55.824Z,50
2017-09-01T07:42:04.649Z,55
2017-09-01T07:43:13.487Z,55
2017-09-01T07:44:22.317Z,55
2017-09-01T07:45:31.150Z,55
2017-09-01T07:46:40.298Z,60
2017-09-01T07:47:49.126Z,60
2017-09-01T07:48:57.957Z,65
2017-09-01T07:50:06.793Z,65
2017-09-01T07:51:15.627Z,70
2017-09-01T07:52:24.453Z,75
2017-09-01T07:53:33.282Z,75
2017-09-01T07:54:42.116Z,80
2017-09-01T07:55:50.946Z,75
2017-09-01T07:56:59.784Z,80
2017-09-01T07:58:08.610Z,80
2017-09-01T07:59:17.438Z,75
2017-09-01T08:00:26.268Z,70
2017-09-01T08:01:35.097Z,70
2017-09-01T08:02:43.932Z,65
2017-09-01T08:03:52.760Z,65
2017-09-01T08:05:01.597Z,65
2017-09-01T08:06:10.418Z,60
2017-09-01T08:07:19.256Z,60
2017-09-01T08:08:28.090Z,65
2017-09-01T08:09:36.920Z,65
2017-09-01T08:10:45.752Z,65
2017-09-01T08:11:54.903Z,65
2017-09-01T08:13:03.736Z,65
2017-09-01T08:14:12.570Z,65
2017-09-01T08:15:21.406Z,60
2017-09-01T08:16:30.233Z,60
2017-09-01T08:17:39.060Z,65
2017-09-01T08:18:47.892Z,65
2017-09-01T08:19:56.724Z,60
2017-09-01T08:21:05.555Z,60
2017-09-01T08:22:14.387Z,60
2017-09-01T08:23:23.217Z,60
2017-09-01T08:24:32.049Z,60
2017-09-01T08:25:40.882Z,60
2017-09-01T08:26:49.710Z,60
2017-09-01T08:27:58.539Z,55
2017-09-01T08:29:07.372Z,60
2017-09-01T08:30:16.201Z,60
2017-09-01T08:31:25.027Z,65
2017-09-01T08:32:33.865Z,60
2017-09-01T08:33:42.690Z,65
2017-09-01T08:34:51.528Z,80
2017-09-01T08:36:00.362Z,75
2017-09-01T08:37:09.189Z,75
2017-09-01T08:38:18.020Z,70
2017-09-01T08:39:26.851Z,80
2017-09-01T08:40:35.681Z,80
2017-09-01T08:41:44.510Z,75
2017-09-01T08:42:53.343Z,70
2017-09-01T08:44:02.169Z,70
2017-09-01T08:45:11.002Z,75
2017-09-01T08:46:19.839Z,80
2017-09-01T08:47:28.661Z,80
2017-09-01T08:48:37.494Z,75
2017-09-01T08:49:46.323Z,70
2017-09-01T08:50:55.157Z,75
2017-09-01T08:52:03.990Z,80
2017-09-01T08:53:12.821Z,85
2017-09-01T08:54:21.653Z,80
2017-09-01T08:55:30.486Z,85
2017-09-01T08:56:39.316Z,90
2017-09-01T08:57:48.148Z,90
2017-09-01T08:58:56.987Z,85
2017-09-01T09:00:06.144Z,90
2017-09-01T09:01:14.974Z,95
2017-09-01T09:02:23.808Z,95
2017-09-01T09:03:32.640Z,90
2017-09-01T09:04:41.471Z,90
2017-09-01T09:05:50.298Z,95
2017-09-01T09:06:59.130Z,95
2017-09-01T09:08:07.962Z,100
2017-09-01T09:09:16.791Z,95
2017-09-01T09:10:25.622Z,90
2017-09-01T09:11:34.456Z,90
2017-09-01T09:12:43.287Z,90
2017-09-01T09:13:52.117Z,90
2017-09-01T09:15:00.956Z,85
2017-09-01T09:16:09.805Z,85
2017-09-01T09:17:18.622Z,90
2017-09-01T09:18:27.451Z,75
2017-09-01T09:19:36.283Z,65
2017-09-01T09:20:45.442Z,65
2017-09-01T09:21:54.273Z,65
2017-09-01T09:23:03.108Z,60
2017-09-01T09:24:11.937Z,60
2017-09-01T09:25:20.772Z,55
2017-09-01T09:26:29.604Z,70
2017-09-01T09:27:38.435Z,70
2017-09-01T09:28:47.266Z,70
2017-09-01T09:29:56.100Z,75
2017-09-01T09:31:04.932Z,75
2017-09-01T09:32:13.762Z,70
2017-09-01T09:33:22.592Z,75
2017-09-01T09:34:31.427Z,70
2017-09-01T09:35:40.260Z,70
2017-09-01T09:36:49.090Z,70
2017-09-01T09:37:57.920Z,75
2017-09-01T09:39:06.748Z,70
2017-09-01T09:40:15.595Z,70
2017-09-01T09:41:24.427Z,80
2017-09-01T09:42:33.253Z,80
2017-09-01T09:43:42.086Z,80
2017-09-01T09:44:50.920Z,80
2017-09-01T09:45:59.750Z,80
2017-09-01T09:47:08.589Z,85
2017-09-01T09:48:17.423Z,95
2017-09-01T09:49:26.253Z,95
2017-09-01T09:50:35.082Z,100
2017-09-01T09:51:43.918Z,90
2017-09-01T09:52:52.755Z,90
2017-09-01T09:54:01.583Z,85
2017-09-01T09:55:10.417Z,90
2017-09-01T09:56:19.242Z,95
2017-09-01T09:57:28.080Z,95
2017-09-01T09:58:36.914Z,95
2017-09-01T09:59:46.395Z,95
2017-09-01T10:00:55.227Z,95
2017-09-01T10:02:04.062Z,85
2017-09-01T10:03:12.888Z,95
2017-09-01T10:04:21.721Z,85
2017-09-01T10:05:30.557Z,85
2017-09-01T10:06:39.385Z,85
2017-09-01T10:07:48.215Z,85
2017-09-01T10:08:57.049Z,90
2017-09-01T10:10:05.884Z,105
2017-09-01T10:11:14.720Z,100
2017-09-01T10:12:23.551Z,95
2017-09-01T10:13:32.383Z,80
2017-09-01T10:14:41.215Z,85
2017-09-01T10:15:50.049Z,90
2017-09-01T10:16:58.880Z,90
2017-09-01T10:18:07.719Z,90
2017-09-01T10:19:16.552Z,90
2017-09-01T10:20:25.381Z,90
2017-09-01T10:21:34.207Z,90
2017-09-01T10:22:43.049Z,95
2017-09-01T10:23:51.879Z,100
2017-09-01T10:25:00.716Z,95
2017-09-01T10:26:09.870Z,90
2017-09-01T10:27:18.706Z,90
2017-09-01T10:28:27.537Z,90
2017-09-01T10:29:36.372Z,85
2017-09-01T10:30:45.204Z,85
2017-09-01T10:31:54.040Z,85
2017-09-01T10:33:02.871Z,85
2017-09-01T10:34:11.700Z,85
2017-09-01T10:35:20.537Z,80
2017-09-01T10:36:29.374Z,75
2017-09-01T10:37:38.199Z,70
2017-09-01T10:38:47.032Z,65
2017-09-01T10:39:55.862Z,65
2017-09-01T10:41:04.701Z,65
2017-09-01T10:42:13.532Z,60
2017-09-01T10:43:22.371Z,60
2017-09-01T10:44:31.201Z,55
2017-09-01T10:45:40.033Z,55
2017-09-01T10:46:48.870Z,55
2017-09-01T10:47:57.698Z,55
2017-09-01T10:49:06.531Z,55
2017-09-01T10:50:15.366Z,55
2017-09-01T10:51:24.195Z,50
2017-09-01T10:52:33.030Z,50
2017-09-01T10:53:41.859Z,50
2017-09-01T10:54:50.695Z,45
2017-09-01T10:55:59.522Z,45
2017-09-01T10:57:08.366Z,45
2017-09-01T10:58:17.194Z,45
2017-09-01T10:59:26.026Z,45
2017-09-01T11:00:34.859Z,45
2017-09-01T11:01:43.688Z,50
2017-09-01T11:02:52.519Z,50
2017-09-01T11:04:01.351Z,50
2017-09-01T11:05:10.197Z,50
2017-09-01T11:06:19.019Z,50
2017-09-01T11:07:27.850Z,50
2017-09-01T11:08:36.682Z,50
2017-09-01T11:09:45.509Z,50
2017-09-01T11:10:54.341Z,50
2017-09-01T11:12:03.173Z,50
2017-09-01T11:13:12.004Z,45
2017-09-01T11:14:20.835Z,45
2017-09-01T11:15:29.665Z,45
2017-09-01T11:16:38.499Z,45
2017-09-01T11:17:47.655Z,45
2017-09-01T11:18:56.485Z,40
2017-09-01T11:20:05.318Z,40
2017-09-01T11:21:14.152Z,40
2017-09-01T11:22:23.305Z,40
2017-09-01T11:23:32.133Z,40
2017-09-01T11:24:40.963Z,40
2017-09-01T11:25:49.801Z,40
2017-09-01T11:26:58.628Z,40
2017-09-01T11:28:07.461Z,40
2017-09-01T11:29:16.298Z,40
2017-09-01T11:30:25.131Z,40
2017-09-01T11:31:33.961Z,40
2017-09-01T11:32:43.117Z,40
2017-09-01T11:33:51.952Z,40
2017-09-01T11:35:00.776Z,40
2017-09-01T11:36:09.612Z,40
2017-09-01T11:37:18.438Z,40
2017-09-01T11:38:27.274Z,40
2017-09-01T11:39:36.110Z,40
2017-09-01T11:40:44.938Z,40
2017-09-01T11:41:53.768Z,45
2017-09-01T11:43:02.601Z,45
2017-09-01T11:44:11.430Z,45
2017-09-01T11:45:20.262Z,45
2017-09-01T11:46:29.098Z,45
2017-09-01T11:47:37.920Z,45
2017-09-01T11:48:46.752Z,40
2017-09-01T11:49:55.587Z,40
2017-09-01T11:51:04.415Z,40
2017-09-01T11:52:13.251Z,45
2017-09-01T11:53:22.083Z,45
2017-09-01T11:54:30.919Z,45
2017-09-01T11:55:39.746Z,45
2017-09-01T11:56:48.580Z,45
2017-09-01T11:57:57.412Z,40
2017-09-01T11:59:06.246Z,40
2017-09-01T12:00:15.079Z,40
2017-09-01T12:01:23.908Z,40
2017-09-01T12:02:32.742Z,35
2017-09-01T12:03:41.574Z,35
2017-09-01T12:04:50.408Z,35
2017-09-01T12:05:59.238Z,40
2017-09-01T12:07:08.074Z,40
2017-09-01T12:08:16.905Z,40
2017-09-01T12:09:25.748Z,40
2017-09-01T12:10:34.565Z,40
2017-09-01T12:11:43.401Z,40
2017-09-01T12:12:52.229Z,40
2017-09-01T12:14:01.064Z,40
2017-09-01T12:15:09.897Z,40
2017-09-01T12:16:19.050Z,40
2017-09-01T12:17:28.211Z,40
2017-09-01T12:18:37.041Z,40
2017-09-01T12:19:45.872Z,40
2017-09-01T12:20:54.706Z,40
2017-09-01T12:22:03.535Z,40
2017-09-01T12:23:12.368Z,40
2017-09-01T12:24:21.201Z,35
2017-09-01T12:25:30.034Z,35
2017-09-01T12:26:38.860Z,35
2017-09-01T12:27:47.694Z,35
2017-09-01T12:28:56.526Z,35
2017-09-01T12:30:05.354Z,35
2017-09-01T12:31:14.192Z,35
2017-09-01T12:32:23.017Z,35
2017-09-01T12:33:32.177Z,35
2017-09-01T12:34:41.360Z,35
2017-09-01T12:35:50.200Z,35
2017-09-01T12:36:59.029Z,35
2017-09-01T12:38:07.857Z,35
2017-09-01T12:39:16.696Z,40
2017-09-01T12:40:25.528Z,35
2017-09-01T12:41:34.362Z,40
2017-09-01T12:42:43.191Z,40
2017-09-01T12:43:52.022Z,40
2017-09-01T12:45:00.856Z,40
2017-09-01T12:46:09.690Z,35
2017-09-01T12:47:18.517Z,35
2017-09-01T12:48:27.344Z,35
2017-09-01T12:49:36.182Z,35
2017-09-01T12:50:45.009Z,35
2017-09-01T12:51:53.846Z,35
2017-09-01T12:53:02.675Z,35
2017-09-01T12:54:11.506Z,35
2017-09-01T12:55:20.335Z,35
2017-09-01T12:56:29.167Z,35
2017-09-01T12:57:37.996Z,35
2017-09-01T12:58:46.831Z,35
2017-09-01T12:59:55.666Z,30
2017-09-01T13:01:04.820Z,30
2017-09-01T13:02:13.650Z,30
2017-09-01T13:03:22.489Z,30
2017-09-01T13:04:31.316Z,30
2017-09-01T13:05:40.149Z,30
2017-09-01T13:06:48.978Z,30
2017-09-01T13:07:58.144Z,30
2017-09-01T13:09:06.973Z,30
2017-09-01T13:10:15.814Z,30
2017-09-01T13:11:24.970Z,30
2017-09-01T13:12:33.802Z,25
2017-09-01T13:13:42.632Z,25
2017-09-01T13:14:51.466Z,25
2017-09-01T13:16:00.302Z,25
2017-09-01T13:17:09.133Z,25
2017-09-01T13:18:17.964Z,25
2017-09-01T13:19:26.799Z,25
2017-09-01T13:20:35.949Z,25
2017-09-01T13:21:44.779Z,25
2017-09-01T13:22:53.613Z,25
2017-09-01T13:24:02.443Z,25
2017-09-01T13:25:11.277Z,25
2017-09-01T13:26:20.108Z,25
2017-09-01T13:27:28.939Z,25
2017-09-01T13:28:37.769Z,30
2017-09-01T13:29:46.601Z,30
2017-09-01T13:30:55.437Z,35
2017-09-01T13:32:04.268Z,35
2017-09-01T13:33:13.102Z,35
2017-09-01T13:34:21.931Z,40
2017-09-01T13:35:30.765Z,40
2017-09-01T13:36:39.600Z,40
2017-09-01T13:37:48.428Z,40
2017-09-01T13:38:57.263Z,40
2017-09-01T13:40:06.093Z,40
2017-09-01T13:41:14.925Z,40
2017-09-01T13:42:23.753Z,40
2017-09-01T13:43:32.591Z,40
2017-09-01T13:44:41.424Z,40
2017-09-01T13:45:50.253Z,40
2017-09-01T13:46:59.087Z,35
2017-09-01T13:48:08.245Z,35
2017-09-01T13:49:17.080Z,35
2017-09-01T13:50:25.910Z,35
2017-09-01T13:51:34.742Z,35
2017-09-01T13:52:43.571Z,35
2017-09-01T13:53:52.409Z,35
2017-09-01T13:55:01.245Z,40
2017-09-01T13:56:10.078Z,40
2017-09-01T13:57:18.908Z,40
2017-09-01T13:58:27.735Z,40
2017-09-01T13:59:36.568Z,40
2017-09-01T14:00:45.399Z,40
2017-09-01T14:01:54.233Z,35
2017-09-01T14:03:03.059Z,35
2017-09-01T14:04:11.893Z,35
2017-09-01T14:05:20.726Z,35
2017-09-01T14:06:29.553Z,35
2017-09-01T14:07:38.393Z,30
2017-09-01T14:08:47.548Z,30
2017-09-01T14:09:56.376Z,30
2017-09-01T14:11:05.206Z,25
2017-09-01T14:12:14.038Z,25
2017-09-01T14:13:23.199Z,25
2017-09-01T14:14:32.030Z,25
2017-09-01T14:15:40.865Z,25
2017-09-01T14:16:49.691Z,25
2017-09-01T14:17:58.524Z,30
2017-09-01T14:19:07.358Z,30
2017-09-01T14:20:16.187Z,30
2017-09-01T14:21:25.020Z,25
2017-09-01T14:22:34.180Z,25
2017-09-01T14:23:43.005Z,25
2017-09-01T14:24:51.841Z,25
2017-09-01T14:26:00.669Z,25
2017-09-01T14:27:09.524Z,25
2017-09-01T14:28:18.336Z,25
2017-09-01T14:29:27.167Z,20
2017-09-01T14:30:35.997Z,20
2017-09-01T14:31:44.830Z,20
2017-09-01T14:32:53.659Z,20
2017-09-01T14:34:02.488Z,20
2017-09-01T14:35:11.325Z,20
2017-09-01T14:36:20.157Z,15
2017-09-01T14:37:28.988Z,15
2017-09-01T14:38:37.820Z,15
2017-09-01T14:39:46.654Z,15
2017-09-01T14:40:55.487Z,15
2017-09-01T14:42:04.317Z,15
2017-09-01T14:43:13.149Z,15
2017-09-01T14:44:21.984Z,15
2017-09-01T14:45:30.813Z,15
2017-09-01T14:46:39.643Z,15
2017-09-01T14:47:48.475Z,15
2017-09-01T14:48:57.308Z,15
2017-09-01T14:50:06.139Z,15
2017-09-01T14:51:14.970Z,15
2017-09-01T14:52:23.795Z,15
2017-09-01T14:53:32.626Z,15
2017-09-01T14:54:41.458Z,15
2017-09-01T14:55:50.296Z,15
2017-09-01T14:56:59.134Z,15
2017-09-01T14:58:07.962Z,15
2017-09-01T14:59:16.792Z,15
2017-09-01T15:00:25.631Z,15
2017-09-01T15:01:34.469Z,10
2017-09-01T15:02:43.296Z,10
2017-09-01T15:03:52.129Z,10
2017-09-01T15:05:00.959Z,10
2017-09-01T15:06:09.788Z,10
2017-09-01T15:07:18.621Z,10
2017-09-01T15:08:27.459Z,10
2017-09-01T15:09:36.291Z,10
2017-09-01T15:10:45.123Z,10
2017-09-01T15:11:54.271Z,15
2017-09-01T15:13:03.104Z,15
2017-09-01T15:14:11.937Z,15
2017-09-01T15:15:20.762Z,15
2017-09-01T15:16:29.595Z,15
2017-09-01T15:17:38.427Z,15
2017-09-01T15:18:47.259Z,15
2017-09-01T15:19:56.098Z,15
2017-09-01T15:21:04.925Z,15
2017-09-01T15:22:13.754Z,15
2017-09-01T15:23:22.583Z,15
2017-09-01T15:24:31.413Z,15
2017-09-01T15:25:40.248Z,15
2017-09-01T15:26:49.083Z,15
2017-09-01T15:27:57.910Z,15
2017-09-01T15:29:06.740Z,15
2017-09-01T15:30:15.581Z,15
2017-09-01T15:31:24.408Z,15
2017-09-01T15:32:33.241Z,15
2017-09-01T15:33:42.073Z,15
2017-09-01T15:34:50.902Z,15
2017-09-01T15:35:59.730Z,15
2017-09-01T15:37:08.561Z,15
2017-09-01T15:38:17.398Z,15
2017-09-01T15:39:26.222Z,15
2017-09-01T15:40:35.056Z,15
2017-09-01T15:41:43.887Z,15
2017-09-01T15:42:52.720Z,15
2017-09-01T15:44:01.554Z,15
2017-09-01T15:45:10.708Z,15
2017-09-01T15:46:19.535Z,15
2017-09-01T15:47:28.367Z,15
2017-09-01T15:48:37.202Z,15
2017-09-01T15:49:46.028Z,15
2017-09-01T15:50:54.862Z,15
2017-09-01T15:52:03.692Z,15
2017-09-01T15:53:12.519Z,15
2017-09-01T15:54:21.356Z,15
2017-09-01T15:55:30.187Z,15
2017-09-01T15:56:39.020Z,15
2017-09-01T15:57:47.847Z,15
2017-09-01T15:58:56.687Z,15
2017-09-01T16:00:05.516Z,15
2017-09-01T16:01:14.354Z,15
2017-09-01T16:02:23.184Z,15
2017-09-01T16:03:32.016Z,15
2017-09-01T16:04:40.849Z,15
2017-09-01T16:05:49.688Z,15
2017-09-01T16:06:58.521Z,15
2017-09-01T16:08:07.353Z,15
2017-09-01T16:09:16.184Z,10
2017-09-01T16:10:25.013Z,10
2017-09-01T16:11:33.849Z,10
2017-09-01T16:12:43.005Z,10
2017-09-01T16:13:51.842Z,10
2017-09-01T16:15:00.668Z,10
2017-09-01T16:16:09.502Z,10
2017-09-01T16:17:18.328Z,10
2017-09-01T16:18:27.156Z,10
2017-09-01T16:19:35.991Z,10
2017-09-01T16:20:44.826Z,10
2017-09-01T16:21:53.976Z,10
2017-09-01T16:23:02.811Z,10
2017-09-01T16:24:11.642Z,10
2017-09-01T16:25:20.470Z,10
2017-09-01T16:26:29.304Z,10
2017-09-01T16:27:38.141Z,10
2017-09-01T16:28:46.968Z,5
2017-09-01T16:29:55.803Z,5
2017-09-01T16:31:04.632Z,5
2017-09-01T16:32:13.467Z,5
2017-09-01T16:33:22.301Z,5